createdAt,value
2023-03-29T00:02:30.120Z,1.34
2023-03-29T00:04:57.706Z,1.39
2023-03-29T00:07:26.034Z,1.39
2023-03-29T00:09:53.373Z,1.32
2023-03-29T00:12:19.983Z,1.42
2023-03-29T00:14:46.504Z,1.54
2023-03-29T00:17:13.148Z,1.50
2023-03-29T00:19:40.164Z,1.48
2023-03-29T00:22:06.738Z,1.41
2023-03-29T00:24:33.447Z,1.29
2023-03-29T00:27:00.279Z,1.25
2023-03-29T00:29:26.780Z,1.21
2023-03-29T00:31:56.064Z,1.19
2023-03-29T00:34:30.951Z,1.22
2023-03-29T00:36:58.253Z,1.15
2023-03-29T00:39:26.359Z,1.09
2023-03-29T00:41:53.151Z,1.06
2023-03-29T00:44:57.379Z,1.04
2023-03-29T00:47:36.097Z,0.98
2023-03-29T00:50:22.552Z,1.00
2023-03-29T00:52:55.154Z,1.00
2023-03-29T00:55:23.667Z,0.94
2023-03-29T00:57:52.130Z,0.91
2023-03-29T01:00:20.912Z,1.00
2023-03-29T01:02:54.188Z,1.05
2023-03-29T01:05:40.573Z,1.24
2023-03-29T01:08:18.176Z,1.26
2023-03-29T01:10:51.245Z,1.42
2023-03-29T01:13:22.331Z,1.47
2023-03-29T01:15:49.035Z,1.31
2023-03-29T01:18:15.829Z,1.36
2023-03-29T01:21:14.750Z,1.23
2023-03-29T01:23:47.525Z,1.18
2023-03-29T01:26:36.797Z,1.04
2023-03-29T01:29:07.961Z,1.01
2023-03-29T01:31:42.285Z,0.92
2023-03-29T01:34:21.977Z,0.88
2023-03-29T01:36:54.759Z,0.79
2023-03-29T01:39:22.029Z,0.74
2023-03-29T01:42:00.914Z,0.64
2023-03-29T01:44:35.703Z,0.63
2023-03-29T01:47:16.269Z,0.63
2023-03-29T01:49:51.302Z,0.62
2023-03-29T01:52:23.814Z,0.61
2023-03-29T01:54:56.375Z,0.64
2023-03-29T01:57:24.987Z,0.60
2023-03-29T01:59:53.505Z,0.52
2023-03-29T02:02:21.044Z,0.59
2023-03-29T02:04:52.272Z,0.55
2023-03-29T02:07:22.649Z,0.55
2023-03-29T02:09:50.395Z,0.56
2023-03-29T02:12:17.209Z,0.51
2023-03-29T02:14:43.987Z,0.60
2023-03-29T02:17:16.712Z,0.62
2023-03-29T02:19:43.467Z,0.62
2023-03-29T02:22:12.817Z,0.66
2023-03-29T02:24:40.920Z,0.70
2023-03-29T02:27:07.701Z,0.72
2023-03-29T02:29:34.296Z,0.75
2023-03-29T02:32:11.082Z,0.72
2023-03-29T02:34:43.795Z,0.82
2023-03-29T02:37:13.013Z,0.84
2023-03-29T02:39:41.091Z,1.03
2023-03-29T02:42:08.058Z,1.15
2023-03-29T02:44:38.218Z,1.01
2023-03-29T02:47:14.189Z,0.96
2023-03-29T02:49:41.033Z,0.90
2023-03-29T02:52:14.123Z,0.94
2023-03-29T02:54:43.313Z,1.10
2023-03-29T02:57:10.961Z,1.22
2023-03-29T02:59:38.633Z,1.14
2023-03-29T03:02:05.612Z,1.05
2023-03-29T03:04:34.992Z,0.98
2023-03-29T03:07:02.250Z,1.01
2023-03-29T03:09:28.987Z,1.10
2023-03-29T03:11:55.405Z,1.10
2023-03-29T03:14:22.814Z,1.11
2023-03-29T03:16:49.797Z,1.09
2023-03-29T03:19:16.471Z,1.12
2023-03-29T03:21:43.246Z,1.08
2023-03-29T03:24:10.305Z,1.12
2023-03-29T03:26:38.220Z,1.09
2023-03-29T03:29:05.131Z,1.10
2023-03-29T03:31:33.446Z,1.08
2023-03-29T03:34:00.094Z,1.06
2023-03-29T03:36:29.444Z,1.23
2023-03-29T03:38:55.901Z,1.02
2023-03-29T03:41:22.756Z,1.09
2023-03-29T03:43:49.455Z,1.12
2023-03-29T03:46:17.140Z,1.04
2023-03-29T03:48:45.058Z,0.96
2023-03-29T03:51:11.590Z,0.89
2023-03-29T03:53:38.248Z,0.93
2023-03-29T03:56:08.981Z,0.91
2023-03-29T03:58:36.587Z,0.90
2023-03-29T04:01:03.834Z,0.89
2023-03-29T04:03:31.701Z,0.96
2023-03-29T04:06:01.699Z,0.96
2023-03-29T04:08:28.206Z,0.97
2023-03-29T04:10:56.792Z,0.90
2023-03-29T04:13:23.845Z,0.89
2023-03-29T04:15:54.060Z,0.86
2023-03-29T04:18:21.458Z,0.97
2023-03-29T04:20:48.283Z,0.96
2023-03-29T04:23:15.137Z,1.08
2023-03-29T04:25:41.668Z,0.99
2023-03-29T04:28:09.697Z,1.06
2023-03-29T04:30:36.517Z,1.17
2023-03-29T04:33:03.920Z,1.33
2023-03-29T04:35:30.477Z,1.30
2023-03-29T04:37:57.172Z,1.47
2023-03-29T04:40:23.613Z,1.47
2023-03-29T04:42:51.738Z,1.42
2023-03-29T04:45:19.054Z,1.56
2023-03-29T04:47:46.341Z,1.60
2023-03-29T04:50:13.777Z,1.70
2023-03-29T04:52:40.819Z,1.75
2023-03-29T04:55:07.955Z,1.70
2023-03-29T04:57:34.622Z,1.98
2023-03-29T05:00:01.252Z,1.96
2023-03-29T05:02:27.886Z,2.07
2023-03-29T05:04:54.908Z,2.20
2023-03-29T05:07:21.900Z,2.16
2023-03-29T05:09:48.590Z,2.13
2023-03-29T05:12:15.335Z,2.24
2023-03-29T05:14:41.789Z,2.29
2023-03-29T05:17:08.442Z,2.37
2023-03-29T05:19:36.478Z,2.32
2023-03-29T05:22:02.891Z,2.27
2023-03-29T05:24:29.801Z,2.29
2023-03-29T05:26:56.574Z,2.43
2023-03-29T05:29:23.522Z,2.57
2023-03-29T05:31:50.077Z,2.68
2023-03-29T05:34:16.504Z,2.89
2023-03-29T05:36:43.530Z,2.94
2023-03-29T05:39:10.893Z,2.96
2023-03-29T05:41:37.933Z,3.03
2023-03-29T05:44:04.474Z,3.13
2023-03-29T05:46:31.666Z,3.02
2023-03-29T05:48:58.486Z,3.22
2023-03-29T05:51:25.164Z,3.20
2023-03-29T05:53:52.133Z,3.27
2023-03-29T05:56:19.588Z,3.37
2023-03-29T05:58:49.427Z,3.53
2023-03-29T06:01:17.999Z,3.74
2023-03-29T06:03:46.151Z,3.79
2023-03-29T06:06:16.177Z,3.78
2023-03-29T06:08:43.492Z,3.90
2023-03-29T06:11:11.744Z,3.96
2023-03-29T06:13:38.926Z,3.98
2023-03-29T06:16:10.280Z,4.10
2023-03-29T06:18:38.097Z,4.11
2023-03-29T06:21:05.004Z,4.04
2023-03-29T06:23:32.001Z,4.03
2023-03-29T06:26:00.159Z,4.02
2023-03-29T06:28:26.774Z,4.01
2023-03-29T06:30:56.434Z,4.13
2023-03-29T06:33:23.180Z,4.13
2023-03-29T06:35:50.086Z,4.14
2023-03-29T06:38:16.944Z,4.08
2023-03-29T06:40:44.646Z,4.06
2023-03-29T06:43:11.274Z,3.93
2023-03-29T06:45:38.947Z,3.90
2023-03-29T06:48:06.303Z,3.89
2023-03-29T06:50:33.035Z,4.00
2023-03-29T06:53:00.019Z,4.00
2023-03-29T06:55:27.356Z,3.98
2023-03-29T06:57:54.476Z,3.98
2023-03-29T07:00:28.063Z,4.02
2023-03-29T07:02:56.473Z,4.12
2023-03-29T07:05:23.966Z,4.10
2023-03-29T07:07:53.945Z,4.16
2023-03-29T07:10:26.076Z,4.23
2023-03-29T07:12:53.008Z,4.26
2023-03-29T07:15:21.503Z,4.27
2023-03-29T07:17:48.993Z,4.33
2023-03-29T07:20:15.699Z,4.39
2023-03-29T07:22:43.839Z,4.35
2023-03-29T07:25:12.598Z,4.36
2023-03-29T07:27:42.182Z,4.39
2023-03-29T07:30:12.348Z,4.25
2023-03-29T07:32:41.039Z,4.40
2023-03-29T07:35:08.695Z,4.42
2023-03-29T07:37:37.405Z,4.47
2023-03-29T07:40:18.664Z,4.43
2023-03-29T07:42:46.752Z,4.45
2023-03-29T07:45:14.597Z,4.43
2023-03-29T07:47:41.561Z,4.44
2023-03-29T07:50:09.592Z,4.44
2023-03-29T07:52:38.206Z,4.55
2023-03-29T07:55:06.516Z,4.55
2023-03-29T07:57:33.001Z,4.55
2023-03-29T07:59:59.729Z,4.68
2023-03-29T08:02:27.228Z,4.78
2023-03-29T08:04:54.493Z,4.74
2023-03-29T08:07:21.395Z,4.65
2023-03-29T08:09:48.573Z,4.54
2023-03-29T08:12:15.139Z,4.50
2023-03-29T08:14:41.623Z,4.50
2023-03-29T08:17:08.144Z,4.44
2023-03-29T08:19:34.560Z,4.51
2023-03-29T08:22:01.122Z,4.44
2023-03-29T08:24:28.560Z,4.52
2023-03-29T08:26:54.925Z,4.60
2023-03-29T08:29:22.332Z,4.62
2023-03-29T08:31:49.278Z,4.80
2023-03-29T08:34:16.193Z,4.66
2023-03-29T08:36:42.688Z,4.81
2023-03-29T08:39:10.026Z,4.85
2023-03-29T08:41:36.769Z,4.92
2023-03-29T08:44:41.675Z,5.05
2023-03-29T08:47:17.409Z,5.09
2023-03-29T08:49:48.660Z,5.10
2023-03-29T08:52:23.688Z,5.33
2023-03-29T08:54:52.727Z,5.23
2023-03-29T08:57:23.012Z,5.24
2023-03-29T08:59:51.738Z,5.43
2023-03-29T09:02:23.346Z,5.56
2023-03-29T09:04:50.838Z,5.72
2023-03-29T09:07:17.741Z,5.74
2023-03-29T09:09:44.382Z,5.79
2023-03-29T09:12:13.836Z,5.84
2023-03-29T09:14:59.204Z,5.93
2023-03-29T09:17:31.055Z,5.96
2023-03-29T09:20:20.410Z,6.11
2023-03-29T09:22:47.102Z,6.16
2023-03-29T09:25:54.156Z,6.29
2023-03-29T09:28:34.791Z,6.37
2023-03-29T09:31:16.706Z,6.42
2023-03-29T09:34:14.457Z,6.62
2023-03-29T09:36:54.962Z,6.65
2023-03-29T09:39:23.127Z,6.56
2023-03-29T09:41:56.995Z,6.80
2023-03-29T09:44:31.155Z,7.01
2023-03-29T09:47:07.724Z,7.08
2023-03-29T09:49:40.574Z,7.22
2023-03-29T09:52:12.295Z,6.97
2023-03-29T09:54:38.690Z,7.00
2023-03-29T09:57:05.216Z,7.08
2023-03-29T09:59:32.110Z,7.37
2023-03-29T10:02:10.191Z,7.30
2023-03-29T10:04:37.156Z,7.34
2023-03-29T10:07:04.732Z,7.42
2023-03-29T10:09:32.512Z,7.46
2023-03-29T10:12:03.501Z,7.55
2023-03-29T10:14:44.707Z,7.41
2023-03-29T10:17:16.852Z,7.44
2023-03-29T10:19:53.131Z,7.60
2023-03-29T10:22:23.830Z,7.57
2023-03-29T10:24:52.097Z,7.51
2023-03-29T10:27:27.349Z,7.78
2023-03-29T10:29:54.705Z,7.84
2023-03-29T10:32:35.425Z,7.84
2023-03-29T10:35:23.662Z,7.70
2023-03-29T10:37:52.036Z,7.78
2023-03-29T10:40:33.736Z,7.72
2023-03-29T10:43:19.491Z,7.82
2023-03-29T10:45:52.083Z,8.03
2023-03-29T10:48:19.400Z,7.95
2023-03-29T10:50:52.936Z,8.02
2023-03-29T10:53:26.225Z,7.92
2023-03-29T10:56:07.889Z,7.88
2023-03-29T10:58:56.860Z,8.02
2023-03-29T11:01:57.533Z,7.89
2023-03-29T11:04:48.900Z,7.68
2023-03-29T11:07:26.223Z,7.81
2023-03-29T11:09:59.447Z,8.00
2023-03-29T11:12:41.099Z,7.95
2023-03-29T11:15:11.175Z,8.23
2023-03-29T11:17:47.089Z,8.29
2023-03-29T11:20:22.373Z,8.18
2023-03-29T11:23:21.294Z,8.38
2023-03-29T11:26:00.266Z,8.30
2023-03-29T11:28:49.476Z,8.60
2023-03-29T11:31:26.750Z,8.89
2023-03-29T11:34:15.590Z,8.64
2023-03-29T11:36:50.450Z,9.40
2023-03-29T11:39:45.130Z,9.72
2023-03-29T11:42:21.591Z,9.86
2023-03-29T11:44:54.641Z,9.15
2023-03-29T11:47:23.097Z,9.39
2023-03-29T11:50:13.787Z,9.26
2023-03-29T11:52:45.060Z,9.38
2023-03-29T11:55:14.441Z,9.17
2023-03-29T11:57:45.460Z,9.27
2023-03-29T12:00:22.256Z,9.30
2023-03-29T12:03:11.164Z,9.42
2023-03-29T12:05:45.572Z,9.42
2023-03-29T12:08:18.856Z,9.73
2023-03-29T12:10:50.105Z,10.26
2023-03-29T12:13:27.254Z,10.04
2023-03-29T12:16:06.020Z,10.68
2023-03-29T12:18:42.374Z,10.62
2023-03-29T12:21:13.382Z,10.79
2023-03-29T12:23:42.280Z,11.26
2023-03-29T12:26:17.142Z,11.15
2023-03-29T12:29:07.140Z,11.54
2023-03-29T12:31:59.006Z,11.45
2023-03-29T12:34:30.916Z,11.25
2023-03-29T12:37:19.303Z,11.07
2023-03-29T12:39:45.926Z,11.08
2023-03-29T12:42:16.429Z,10.61
2023-03-29T12:45:12.695Z,10.73
2023-03-29T12:47:43.892Z,10.80
2023-03-29T12:50:31.557Z,10.71
2023-03-29T12:53:13.290Z,10.72
2023-03-29T12:55:42.717Z,10.33
2023-03-29T12:58:28.307Z,10.33
2023-03-29T13:01:21.425Z,10.28
2023-03-29T13:03:52.396Z,10.39
2023-03-29T13:06:30.364Z,10.29
2023-03-29T13:09:20.358Z,10.19
2023-03-29T13:11:52.911Z,10.29
2023-03-29T13:14:20.622Z,10.37
2023-03-29T13:16:47.657Z,10.47
2023-03-29T13:19:27.213Z,10.13
2023-03-29T13:22:10.063Z,10.59
2023-03-29T13:24:47.145Z,10.78
2023-03-29T13:27:32.101Z,10.39
2023-03-29T13:30:33.328Z,10.42
2023-03-29T13:33:22.745Z,10.59
2023-03-29T13:35:58.434Z,10.66
2023-03-29T13:38:30.983Z,10.84
2023-03-29T13:41:04.309Z,10.54
2023-03-29T13:43:51.441Z,10.39
2023-03-29T13:46:22.925Z,10.37
2023-03-29T13:48:58.139Z,10.63
2023-03-29T13:51:34.187Z,10.78
2023-03-29T13:54:28.651Z,10.50
2023-03-29T13:57:02.834Z,10.44
2023-03-29T13:59:45.154Z,10.80
2023-03-29T14:02:20.327Z,10.33
2023-03-29T14:04:48.552Z,10.36
2023-03-29T14:07:15.759Z,10.41
2023-03-29T14:09:45.166Z,10.50
2023-03-29T14:12:14.081Z,10.42
2023-03-29T14:14:57.680Z,10.44
2023-03-29T14:17:25.669Z,10.26
2023-03-29T14:19:53.091Z,10.34
2023-03-29T14:22:20.721Z,10.23
2023-03-29T14:24:51.821Z,10.33
2023-03-29T14:27:19.120Z,10.33
2023-03-29T14:29:47.785Z,10.42
2023-03-29T14:32:16.808Z,10.45
2023-03-29T14:34:47.411Z,10.63
2023-03-29T14:37:18.741Z,10.57
2023-03-29T14:39:45.889Z,10.68
2023-03-29T14:42:17.300Z,10.69
2023-03-29T14:44:44.850Z,10.81
2023-03-29T14:47:18.234Z,10.90
2023-03-29T14:49:45.108Z,10.96
2023-03-29T14:52:13.325Z,10.96
2023-03-29T14:54:45.085Z,11.02
2023-03-29T14:57:16.545Z,11.12
2023-03-29T14:59:43.426Z,11.30
2023-03-29T15:02:23.505Z,11.23
2023-03-29T15:05:03.485Z,11.28
2023-03-29T15:07:31.455Z,11.26
2023-03-29T15:09:59.736Z,11.35
2023-03-29T15:12:29.645Z,11.42
2023-03-29T15:14:56.374Z,11.25
2023-03-29T15:17:39.415Z,11.18
2023-03-29T15:20:23.165Z,10.85
2023-03-29T15:23:08.061Z,10.36
2023-03-29T15:25:45.607Z,10.23
2023-03-29T15:28:28.248Z,10.10
2023-03-29T15:33:42.155Z,9.96
2023-03-29T15:36:10.837Z,9.91
2023-03-29T15:38:44.052Z,9.88
2023-03-29T15:41:13.454Z,9.84
2023-03-29T15:43:41.205Z,9.82
2023-03-29T15:46:08.121Z,9.81
2023-03-29T15:48:34.967Z,9.83
2023-03-29T15:51:05.471Z,9.86
2023-03-29T15:53:32.846Z,9.84
2023-03-29T15:56:01.573Z,9.90
2023-03-29T15:58:31.026Z,9.94
2023-03-29T16:01:02.494Z,10.00
2023-03-29T16:03:32.724Z,10.11
2023-03-29T16:05:59.303Z,10.08
2023-03-29T16:08:25.791Z,10.10
2023-03-29T16:10:52.248Z,10.12
2023-03-29T16:13:18.814Z,10.19
2023-03-29T16:15:46.038Z,10.26
2023-03-29T16:18:12.626Z,10.38
2023-03-29T16:20:39.329Z,10.47
2023-03-29T16:23:09.744Z,10.53
2023-03-29T16:25:38.486Z,10.50
2023-03-29T16:28:06.351Z,10.60
2023-03-29T16:30:33.728Z,10.69
2023-03-29T16:33:01.188Z,10.66
2023-03-29T16:35:31.310Z,10.66
2023-03-29T16:37:57.979Z,10.63
2023-03-29T16:40:24.886Z,10.53
2023-03-29T16:42:51.721Z,10.38
2023-03-29T16:45:19.427Z,10.24
2023-03-29T16:47:46.463Z,10.15
2023-03-29T16:50:15.269Z,10.12
2023-03-29T16:52:42.012Z,9.96
2023-03-29T16:55:12.104Z,9.98
2023-03-29T16:57:40.120Z,9.94
2023-03-29T17:00:08.872Z,9.90
2023-03-29T17:02:35.931Z,9.84
2023-03-29T17:05:02.762Z,9.86
2023-03-29T17:07:29.635Z,9.85
2023-03-29T17:09:56.393Z,9.86
2023-03-29T17:12:23.228Z,9.78
2023-03-29T17:14:50.009Z,9.83
2023-03-29T17:17:16.834Z,9.77
2023-03-29T17:19:43.348Z,9.81
2023-03-29T17:22:09.797Z,9.81
2023-03-29T17:24:36.203Z,9.71
2023-03-29T17:27:02.958Z,9.60
2023-03-29T17:29:29.585Z,9.55
2023-03-29T17:31:56.022Z,9.53
2023-03-29T17:34:22.763Z,9.46
2023-03-29T17:36:53.185Z,9.44
2023-03-29T17:39:20.018Z,9.38
2023-03-29T17:41:47.651Z,9.33
2023-03-29T17:44:14.358Z,9.36
2023-03-29T17:46:41.480Z,9.36
2023-03-29T17:49:07.936Z,9.27
2023-03-29T17:51:34.794Z,9.28
2023-03-29T17:54:01.741Z,9.28
2023-03-29T17:56:28.325Z,9.23
2023-03-29T17:58:55.021Z,9.21
2023-03-29T18:01:22.088Z,9.24
2023-03-29T18:03:49.255Z,9.20
2023-03-29T18:06:19.377Z,9.28
2023-03-29T18:08:47.507Z,9.31
2023-03-29T18:11:18.097Z,9.26
2023-03-29T18:13:45.664Z,9.18
2023-03-29T18:16:12.411Z,9.23
2023-03-29T18:18:38.878Z,9.24
2023-03-29T18:21:07.101Z,9.17
2023-03-29T18:23:33.956Z,9.23
2023-03-29T18:26:02.905Z,9.17
2023-03-29T18:28:30.653Z,9.20
2023-03-29T18:30:57.225Z,9.11
2023-03-29T18:33:23.966Z,9.10
2023-03-29T18:35:51.370Z,9.25
2023-03-29T18:38:18.799Z,9.23
2023-03-29T18:40:50.144Z,9.08
2023-03-29T18:43:16.906Z,8.91
2023-03-29T18:45:44.064Z,8.85
2023-03-29T18:48:11.182Z,8.68
2023-03-29T18:50:38.844Z,8.72
2023-03-29T18:53:05.485Z,8.71
2023-03-29T18:55:32.112Z,8.66
2023-03-29T18:57:58.635Z,8.72
2023-03-29T19:00:25.337Z,8.73
2023-03-29T19:02:52.105Z,8.80
2023-03-29T19:05:18.763Z,8.83
2023-03-29T19:07:45.419Z,8.94
2023-03-29T19:10:12.180Z,8.95
2023-03-29T19:12:38.936Z,8.97
2023-03-29T19:15:06.120Z,8.98
2023-03-29T19:17:32.703Z,8.97
2023-03-29T19:19:59.282Z,9.01
2023-03-29T19:22:26.545Z,9.04
2023-03-29T19:24:53.077Z,9.03
2023-03-29T19:27:19.731Z,9.09
2023-03-29T19:29:46.577Z,9.02
2023-03-29T19:32:12.963Z,9.05
2023-03-29T19:34:39.556Z,8.95
2023-03-29T19:37:06.424Z,9.00
2023-03-29T19:39:33.077Z,8.97
2023-03-29T19:41:59.699Z,8.94
2023-03-29T19:44:28.048Z,8.86
2023-03-29T19:46:54.541Z,8.87
2023-03-29T19:49:20.966Z,8.81
2023-03-29T19:51:48.022Z,8.70
2023-03-29T19:54:14.632Z,8.77
2023-03-29T19:56:42.916Z,8.67
2023-03-29T19:59:11.257Z,8.64
2023-03-29T20:01:39.209Z,8.45
2023-03-29T20:04:05.992Z,8.41
2023-03-29T20:06:32.468Z,8.41
2023-03-29T20:08:58.916Z,8.45
2023-03-29T20:11:25.560Z,8.56
2023-03-29T20:13:51.996Z,8.57
2023-03-29T20:16:19.156Z,8.65
2023-03-29T20:18:45.729Z,8.61
2023-03-29T20:21:14.101Z,8.71
2023-03-29T20:23:41.155Z,8.73
2023-03-29T20:26:08.403Z,8.72
2023-03-29T20:28:34.875Z,8.66
2023-03-29T20:31:06.414Z,8.67
2023-03-29T20:33:33.343Z,8.68
2023-03-29T20:36:00.354Z,8.77
2023-03-29T20:38:26.946Z,8.74
2023-03-29T20:40:53.600Z,8.70
2023-03-29T20:43:20.186Z,8.77
2023-03-29T20:45:52.723Z,8.74
2023-03-29T20:48:23.294Z,8.71
2023-03-29T20:50:50.465Z,8.85
2023-03-29T20:53:18.087Z,8.83
2023-03-29T20:55:44.740Z,8.83
2023-03-29T20:58:11.540Z,8.81
2023-03-29T21:00:38.255Z,8.72
2023-03-29T21:03:04.944Z,8.75
2023-03-29T21:05:32.923Z,8.83
2023-03-29T21:07:59.714Z,8.71
2023-03-29T21:10:27.542Z,8.76
2023-03-29T21:12:54.653Z,8.64
2023-03-29T21:15:21.461Z,8.71
2023-03-29T21:17:47.986Z,8.77
2023-03-29T21:20:15.473Z,8.71
2023-03-29T21:22:45.074Z,8.64
2023-03-29T21:25:14.553Z,8.65
2023-03-29T21:27:41.605Z,8.64
2023-03-29T21:30:09.296Z,8.64
2023-03-29T21:32:36.087Z,8.64
2023-03-29T21:35:02.600Z,8.60
2023-03-29T21:37:29.351Z,8.61
2023-03-29T21:39:55.904Z,8.69
2023-03-29T21:42:22.540Z,8.64
2023-03-29T21:44:49.044Z,8.55
2023-03-29T21:47:15.482Z,8.54
2023-03-29T21:49:41.887Z,8.61
2023-03-29T21:52:08.409Z,8.61
2023-03-29T21:54:34.895Z,8.60
2023-03-29T21:57:01.545Z,8.46
2023-03-29T21:59:28.148Z,8.44
2023-03-29T22:01:55.378Z,8.39
2023-03-29T22:04:35.367Z,8.43
2023-03-29T22:07:03.990Z,8.33
2023-03-29T22:09:32.317Z,8.30
2023-03-29T22:11:59.758Z,8.30
2023-03-29T22:14:28.484Z,8.22
2023-03-29T22:16:55.202Z,8.26
2023-03-29T22:19:21.829Z,8.23
2023-03-29T22:21:48.712Z,8.16
2023-03-29T22:24:16.495Z,8.10
2023-03-29T22:26:44.950Z,8.10
2023-03-29T22:29:12.173Z,8.09
2023-03-29T22:31:39.378Z,8.11
2023-03-29T22:34:06.615Z,8.08
2023-03-29T22:36:33.477Z,8.12
2023-03-29T22:39:00.049Z,8.11
2023-03-29T22:41:28.150Z,8.20
2023-03-29T22:43:56.648Z,8.13
2023-03-29T22:46:23.621Z,8.14
2023-03-29T22:48:50.262Z,8.18
2023-03-29T22:51:17.368Z,8.17
2023-03-29T22:53:44.593Z,8.12
2023-03-29T22:56:11.066Z,8.13
2023-03-29T22:58:37.835Z,8.06
2023-03-29T23:01:05.853Z,7.99
2023-03-29T23:03:33.365Z,7.99
2023-03-29T23:06:03.731Z,8.11
2023-03-29T23:08:32.302Z,8.07
2023-03-29T23:10:58.882Z,8.19
2023-03-29T23:13:33.371Z,8.11
2023-03-29T23:16:01.555Z,8.13
2023-03-29T23:18:30.422Z,8.17
2023-03-29T23:20:58.213Z,8.16
2023-03-29T23:23:26.762Z,8.06
2023-03-29T23:25:54.394Z,8.15
2023-03-29T23:28:25.656Z,8.13
2023-03-29T23:30:56.147Z,8.13
2023-03-29T23:33:26.701Z,8.09
2023-03-29T23:35:54.492Z,8.10
2023-03-29T23:38:21.584Z,8.12
2023-03-29T23:40:58.632Z,8.17
2023-03-29T23:43:32.739Z,8.22
2023-03-29T23:46:05.606Z,8.15
2023-03-29T23:48:35.199Z,8.17
2023-03-29T23:51:02.933Z,8.18
2023-03-29T23:53:30.649Z,8.18
2023-03-29T23:55:58.438Z,8.09
2023-03-29T23:58:24.929Z,8.10
